sensor_id;sensor_type;location;lat;lon;timestamp;pressure;altitude;pressure_sealevel;temperature;humidity
60319;BME280;46163;52.306;5.634;2023-05-20T00:00:49;102466.16;;;18.83;56.56
60319;BME280;46163;52.306;5.634;2023-05-20T00:03:15;102474.47;;;18.81;56.69
60319;BME280;46163;52.306;5.634;2023-05-20T00:05:41;102470.94;;;18.81;56.64
60319;BME280;46163;52.306;5.634;2023-05-20T00:08:07;102461.22;;;18.80;56.68
60319;BME280;46163;52.306;5.634;2023-05-20T00:10:36;102456.44;;;18.75;56.61
60319;BME280;46163;52.306;5.634;2023-05-20T00:13:02;102455.22;;;18.78;56.63
60319;BME280;46163;52.306;5.634;2023-05-20T00:15:30;102461.00;;;18.75;56.72
60319;BME280;46163;52.306;5.634;2023-05-20T00:17:56;102464.53;;;18.75;56.54
60319;BME280;46163;52.306;5.634;2023-05-20T00:20:22;102458.53;;;18.73;56.59
60319;BME280;46163;52.306;5.634;2023-05-20T00:22:47;102464.97;;;18.72;56.47
60319;BME280;46163;52.306;5.634;2023-05-20T00:25:13;102459.81;;;18.71;56.71
60319;BME280;46163;52.306;5.634;2023-05-20T00:27:39;102447.38;;;18.63;56.63
60319;BME280;46163;52.306;5.634;2023-05-20T00:30:06;102462.72;;;18.69;56.67
60319;BME280;46163;52.306;5.634;2023-05-20T00:32:33;102465.63;;;18.68;56.84
60319;BME280;46163;52.306;5.634;2023-05-20T00:34:59;102461.25;;;18.67;56.74
60319;BME280;46163;52.306;5.634;2023-05-20T00:37:25;102456.28;;;18.63;56.65
60319;BME280;46163;52.306;5.634;2023-05-20T00:39:51;102463.31;;;18.64;56.41
60319;BME280;46163;52.306;5.634;2023-05-20T00:42:23;102459.19;;;18.62;56.59
60319;BME280;46163;52.306;5.634;2023-05-20T00:44:50;102471.41;;;18.64;56.68
60319;BME280;46163;52.306;5.634;2023-05-20T00:47:16;102462.72;;;18.62;56.67
60319;BME280;46163;52.306;5.634;2023-05-20T00:49:46;102451.94;;;18.62;56.67
60319;BME280;46163;52.306;5.634;2023-05-20T00:52:13;102448.00;;;18.58;56.73
60319;BME280;46163;52.306;5.634;2023-05-20T00:54:39;102452.38;;;18.59;56.58
60319;BME280;46163;52.306;5.634;2023-05-20T00:57:06;102452.56;;;18.58;56.48
60319;BME280;46163;52.306;5.634;2023-05-20T00:59:36;102455.25;;;18.58;56.58
60319;BME280;46163;52.306;5.634;2023-05-20T01:02:02;102458.19;;;18.56;56.49
60319;BME280;46163;52.306;5.634;2023-05-20T01:04:28;102448.44;;;18.55;56.57
60319;BME280;46163;52.306;5.634;2023-05-20T01:06:54;102445.13;;;18.53;56.55
60319;BME280;46163;52.306;5.634;2023-05-20T01:09:22;102431.06;;;18.45;56.41
60319;BME280;46163;52.306;5.634;2023-05-20T01:11:55;102445.34;;;18.52;56.59
60319;BME280;46163;52.306;5.634;2023-05-20T01:14:26;102424.03;;;18.44;56.58
60319;BME280;46163;52.306;5.634;2023-05-20T01:16:54;102438.50;;;18.49;56.63
60319;BME280;46163;52.306;5.634;2023-05-20T01:19:37;102434.97;;;18.49;56.79
60319;BME280;46163;52.306;5.634;2023-05-20T01:22:07;102425.25;;;18.48;56.62
60319;BME280;46163;52.306;5.634;2023-05-20T01:24:38;102432.50;;;18.47;56.50
60319;BME280;46163;52.306;5.634;2023-05-20T01:27:03;102433.53;;;18.46;56.45
60319;BME280;46163;52.306;5.634;2023-05-20T01:29:29;102428.38;;;18.45;56.65
60319;BME280;46163;52.306;5.634;2023-05-20T01:31:57;102427.56;;;18.44;56.34
60319;BME280;46163;52.306;5.634;2023-05-20T01:34:24;102427.56;;;18.44;56.58
60319;BME280;46163;52.306;5.634;2023-05-20T01:36:50;102418.84;;;18.42;56.59
60319;BME280;46163;52.306;5.634;2023-05-20T01:39:16;102419.88;;;18.41;56.60
60319;BME280;46163;52.306;5.634;2023-05-20T01:41:43;102412.00;;;18.40;56.45
60319;BME280;46163;52.306;5.634;2023-05-20T01:44:09;102413.06;;;18.39;56.46
60319;BME280;46163;52.306;5.634;2023-05-20T01:46:34;102414.91;;;18.38;56.62
60319;BME280;46163;52.306;5.634;2023-05-20T01:49:00;102406.84;;;18.38;56.56
60319;BME280;46163;52.306;5.634;2023-05-20T01:51:25;102408.91;;;18.36;56.47
60319;BME280;46163;52.306;5.634;2023-05-20T01:53:52;102405.63;;;18.34;56.36
60319;BME280;46163;52.306;5.634;2023-05-20T01:56:17;102405.81;;;18.32;56.47
60319;BME280;46163;52.306;5.634;2023-05-20T01:58:42;102408.50;;;18.32;56.42
60319;BME280;46163;52.306;5.634;2023-05-20T02:01:08;102402.72;;;18.29;56.28
60319;BME280;46163;52.306;5.634;2023-05-20T02:03:34;102416.81;;;18.31;56.36
60319;BME280;46163;52.306;5.634;2023-05-20T02:05:59;102409.78;;;18.30;56.41
60319;BME280;46163;52.306;5.634;2023-05-20T02:08:24;102411.84;;;18.28;56.60
60319;BME280;46163;52.306;5.634;2023-05-20T02:10:50;102414.56;;;18.28;56.60
60319;BME280;46163;52.306;5.634;2023-05-20T02:13:15;102413.13;;;18.25;56.60
60319;BME280;46163;52.306;5.634;2023-05-20T02:15:43;102416.00;;;18.24;56.58
60319;BME280;46163;52.306;5.634;2023-05-20T02:18:09;102411.25;;;18.26;56.46
60319;BME280;46163;52.306;5.634;2023-05-20T02:20:38;102407.91;;;18.24;56.58
60319;BME280;46163;52.306;5.634;2023-05-20T02:23:05;102411.66;;;18.23;56.47
60319;BME280;46163;52.306;5.634;2023-05-20T02:25:31;102406.91;;;18.18;56.61
60319;BME280;46163;52.306;5.634;2023-05-20T02:27:56;102404.00;;;18.20;56.60
60319;BME280;46163;52.306;5.634;2023-05-20T02:30:22;102408.56;;;18.19;56.71
60319;BME280;46163;52.306;5.634;2023-05-20T02:32:47;102399.66;;;18.19;56.48
60319;BME280;46163;52.306;5.634;2023-05-20T02:35:15;102402.59;;;18.17;56.61
60319;BME280;46163;52.306;5.634;2023-05-20T02:37:40;102400.94;;;18.16;56.53
60319;BME280;46163;52.306;5.634;2023-05-20T02:40:06;102402.78;;;18.16;56.59
60319;BME280;46163;52.306;5.634;2023-05-20T02:42:33;102402.16;;;18.14;56.65
60319;BME280;46163;52.306;5.634;2023-05-20T02:44:58;102397.81;;;18.13;56.70
60319;BME280;46163;52.306;5.634;2023-05-20T02:47:26;102394.28;;;18.12;56.33
60319;BME280;46163;52.306;5.634;2023-05-20T02:49:51;102394.28;;;18.12;56.47
60319;BME280;46163;52.306;5.634;2023-05-20T02:52:17;102376.09;;;18.07;56.73
60319;BME280;46163;52.306;5.634;2023-05-20T02:54:42;102389.13;;;18.11;56.61
60319;BME280;46163;52.306;5.634;2023-05-20T02:57:08;102390.16;;;18.10;56.40
60319;BME280;46163;52.306;5.634;2023-05-20T02:59:33;102384.34;;;18.06;56.65
60319;BME280;46163;52.306;5.634;2023-05-20T03:01:58;102386.44;;;18.04;56.72
60319;BME280;46163;52.306;5.634;2023-05-20T03:04:27;102380.22;;;18.03;56.36
60319;BME280;46163;52.306;5.634;2023-05-20T03:06:52;102386.22;;;18.05;56.53
60319;BME280;46163;52.306;5.634;2023-05-20T03:09:18;102384.56;;;18.04;56.55
60319;BME280;46163;52.306;5.634;2023-05-20T03:11:44;102387.50;;;18.03;56.72
60319;BME280;46163;52.306;5.634;2023-05-20T03:14:10;102386.47;;;17.97;56.63
60319;BME280;46163;52.306;5.634;2023-05-20T03:16:35;102390.84;;;17.98;56.77
60319;BME280;46163;52.306;5.634;2023-05-20T03:19:01;102395.38;;;17.98;56.65
60319;BME280;46163;52.306;5.634;2023-05-20T03:21:26;102389.16;;;17.97;56.50
60319;BME280;46163;52.306;5.634;2023-05-20T03:23:52;102396.00;;;18.00;56.80
60319;BME280;46163;52.306;5.634;2023-05-20T03:26:17;102389.97;;;17.98;56.62
60319;BME280;46163;52.306;5.634;2023-05-20T03:28:43;102391.84;;;17.97;56.75
60319;BME280;46163;52.306;5.634;2023-05-20T03:31:08;102399.94;;;17.97;56.39
60319;BME280;46163;52.306;5.634;2023-05-20T03:33:34;102399.31;;;17.95;56.39
60319;BME280;46163;52.306;5.634;2023-05-20T03:36:00;102400.38;;;17.94;56.67
60319;BME280;46163;52.306;5.634;2023-05-20T03:38:26;102400.38;;;17.94;56.82
60319;BME280;46163;52.306;5.634;2023-05-20T03:40:51;102396.22;;;17.92;56.61
60319;BME280;46163;52.306;5.634;2023-05-20T03:43:17;102395.41;;;17.91;56.64
60319;BME280;46163;52.306;5.634;2023-05-20T03:45:42;102387.34;;;17.85;56.64
60319;BME280;46163;52.306;5.634;2023-05-20T03:48:08;102399.97;;;17.91;56.85
60319;BME280;46163;52.306;5.634;2023-05-20T03:50:33;102399.16;;;17.90;56.50
60319;BME280;46163;52.306;5.634;2023-05-20T03:52:58;102383.00;;;17.84;56.67
60319;BME280;46163;52.306;5.634;2023-05-20T03:55:24;102388.78;;;17.87;56.58
60319;BME280;46163;52.306;5.634;2023-05-20T03:57:50;102391.69;;;17.86;56.51
60319;BME280;46163;52.306;5.634;2023-05-20T04:00:16;102390.84;;;17.85;56.64
60319;BME280;46163;52.306;5.634;2023-05-20T04:02:42;102390.84;;;17.85;56.75
60319;BME280;46163;52.306;5.634;2023-05-20T04:05:08;102387.13;;;17.86;56.66
60319;BME280;46163;52.306;5.634;2023-05-20T04:07:34;102397.91;;;17.86;56.55
60319;BME280;46163;52.306;5.634;2023-05-20T04:10:00;102394.38;;;17.86;56.34
60319;BME280;46163;52.306;5.634;2023-05-20T04:12:26;102387.13;;;17.79;56.67
60319;BME280;46163;52.306;5.634;2023-05-20T04:14:57;102382.16;;;17.83;56.62
60319;BME280;46163;52.306;5.634;2023-05-20T04:17:22;102385.91;;;17.82;56.69
60319;BME280;46163;52.306;5.634;2023-05-20T04:19:48;102385.91;;;17.82;56.55
60319;BME280;46163;52.306;5.634;2023-05-20T04:22:13;102386.72;;;17.83;56.45
60319;BME280;46163;52.306;5.634;2023-05-20T04:24:38;102390.47;;;17.82;56.60
60319;BME280;46163;52.306;5.634;2023-05-20T04:27:04;102387.13;;;17.79;56.68
60319;BME280;46163;52.306;5.634;2023-05-20T04:29:30;102395.03;;;17.81;56.56
60319;BME280;46163;52.306;5.634;2023-05-20T04:31:58;102395.03;;;17.81;56.75
60319;BME280;46163;52.306;5.634;2023-05-20T04:34:28;102392.34;;;17.81;56.56
60319;BME280;46163;52.306;5.634;2023-05-20T04:37:01;102402.06;;;17.82;56.58
60319;BME280;46163;52.306;5.634;2023-05-20T04:39:27;102395.03;;;17.81;56.54
60319;BME280;46163;52.306;5.634;2023-05-20T04:41:55;102395.03;;;17.81;56.51
60319;BME280;46163;52.306;5.634;2023-05-20T04:44:20;102391.47;;;17.80;56.63
60319;BME280;46163;52.306;5.634;2023-05-20T04:46:48;102399.56;;;17.80;56.59
60319;BME280;46163;52.306;5.634;2023-05-20T04:49:14;102396.88;;;17.80;56.39
60319;BME280;46163;52.306;5.634;2023-05-20T04:51:39;102398.72;;;17.80;56.41
60319;BME280;46163;52.306;5.634;2023-05-20T04:54:06;102398.72;;;17.80;56.68
60319;BME280;46163;52.306;5.634;2023-05-20T04:56:31;102403.09;;;17.81;56.37
60319;BME280;46163;52.306;5.634;2023-05-20T04:58:59;102398.72;;;17.80;56.71
60319;BME280;46163;52.306;5.634;2023-05-20T05:01:25;102398.72;;;17.80;56.73
60319;BME280;46163;52.306;5.634;2023-05-20T05:03:50;102406.81;;;17.80;56.65
60319;BME280;46163;52.306;5.634;2023-05-20T05:06:16;102398.72;;;17.80;56.51
60319;BME280;46163;52.306;5.634;2023-05-20T05:08:42;102403.28;;;17.79;56.37
60319;BME280;46163;52.306;5.634;2023-05-20T05:11:07;102398.72;;;17.80;56.34
60319;BME280;46163;52.306;5.634;2023-05-20T05:13:33;102403.28;;;17.79;56.49
60319;BME280;46163;52.306;5.634;2023-05-20T05:15:59;102397.06;;;17.79;56.41
60319;BME280;46163;52.306;5.634;2023-05-20T05:18:25;102392.13;;;17.76;56.36
60319;BME280;46163;52.306;5.634;2023-05-20T05:20:58;102395.44;;;17.78;56.48
60319;BME280;46163;52.306;5.634;2023-05-20T05:23:24;102381.16;;;17.71;56.29
60319;BME280;46163;52.306;5.634;2023-05-20T05:25:53;102391.69;;;17.79;56.20
60319;BME280;46163;52.306;5.634;2023-05-20T05:28:18;102388.38;;;17.77;56.51
60319;BME280;46163;52.306;5.634;2023-05-20T05:30:43;102380.31;;;17.77;56.31
60319;BME280;46163;52.306;5.634;2023-05-20T05:33:09;102366.03;;;17.70;56.40
60319;BME280;46163;52.306;5.634;2023-05-20T05:35:34;102379.88;;;17.80;56.34
60319;BME280;46163;52.306;5.634;2023-05-20T05:38:00;102367.47;;;17.79;56.34
60319;BME280;46163;52.306;5.634;2023-05-20T05:40:26;102379.47;;;17.83;56.30
60319;BME280;46163;52.306;5.634;2023-05-20T05:42:51;102363.94;;;17.78;56.35
60319;BME280;46163;52.306;5.634;2023-05-20T05:45:17;102369.94;;;17.80;56.63
60319;BME280;46163;52.306;5.634;2023-05-20T05:47:43;102376.78;;;17.83;56.38
60319;BME280;46163;52.306;5.634;2023-05-20T05:50:08;102376.78;;;17.83;56.33
60319;BME280;46163;52.306;5.634;2023-05-20T05:52:35;102379.47;;;17.83;56.35
60319;BME280;46163;52.306;5.634;2023-05-20T05:55:01;102374.09;;;17.83;56.37
60319;BME280;46163;52.306;5.634;2023-05-20T05:57:26;102375.75;;;17.84;56.32
60319;BME280;46163;52.306;5.634;2023-05-20T05:59:57;102365.19;;;17.83;56.18
60319;BME280;46163;52.306;5.634;2023-05-20T06:02:22;102375.75;;;17.84;56.42
60319;BME280;46163;52.306;5.634;2023-05-20T06:04:48;102379.25;;;17.85;56.38
60319;BME280;46163;52.306;5.634;2023-05-20T06:07:13;102376.78;;;17.83;56.35
60319;BME280;46163;52.306;5.634;2023-05-20T06:09:38;102383.59;;;17.86;56.21
60319;BME280;46163;52.306;5.634;2023-05-20T06:12:04;102378.22;;;17.86;56.10
60319;BME280;46163;52.306;5.634;2023-05-20T06:14:30;102378.44;;;17.84;56.21
60319;BME280;46163;52.306;5.634;2023-05-20T06:16:57;102379.25;;;17.85;56.21
60319;BME280;46163;52.306;5.634;2023-05-20T06:19:22;102374.09;;;17.83;56.47
60319;BME280;46163;52.306;5.634;2023-05-20T06:21:48;102374.47;;;17.87;56.37
60319;BME280;46163;52.306;5.634;2023-05-20T06:24:13;102367.44;;;17.86;56.21
60319;BME280;46163;52.306;5.634;2023-05-20T06:26:39;102364.16;;;17.84;55.96
60319;BME280;46163;52.306;5.634;2023-05-20T06:29:04;102369.69;;;17.89;56.21
60319;BME280;46163;52.306;5.634;2023-05-20T06:31:30;102364.97;;;17.84;56.23
60319;BME280;46163;52.306;5.634;2023-05-20T06:33:55;102349.44;;;17.79;56.16
60319;BME280;46163;52.306;5.634;2023-05-20T06:36:21;102364.31;;;17.89;56.12
60319;BME280;46163;52.306;5.634;2023-05-20T06:38:46;102365.78;;;17.91;55.88
60319;BME280;46163;52.306;5.634;2023-05-20T06:41:13;102356.06;;;17.90;56.14
60319;BME280;46163;52.306;5.634;2023-05-20T06:43:38;102363.69;;;17.93;55.84
60319;BME280;46163;52.306;5.634;2023-05-20T06:46:05;102361.59;;;17.95;56.25
60319;BME280;46163;52.306;5.634;2023-05-20T06:48:30;102364.31;;;17.95;55.82
60319;BME280;46163;52.306;5.634;2023-05-20T06:50:58;102356.84;;;17.97;55.93
60319;BME280;46163;52.306;5.634;2023-05-20T06:53:24;102358.50;;;17.98;55.96
60319;BME280;46163;52.306;5.634;2023-05-20T06:55:49;102353.13;;;17.98;55.99
60319;BME280;46163;52.306;5.634;2023-05-20T06:58:15;102347.75;;;17.98;55.90
60319;BME280;46163;52.306;5.634;2023-05-20T07:00:40;102346.47;;;18.01;56.10
60319;BME280;46163;52.306;5.634;2023-05-20T07:03:06;102347.31;;;18.01;55.92
60319;BME280;46163;52.306;5.634;2023-05-20T07:05:31;102343.56;;;18.02;56.01
60319;BME280;46163;52.306;5.634;2023-05-20T07:07:57;102337.34;;;18.02;56.02
60319;BME280;46163;52.306;5.634;2023-05-20T07:10:22;102332.34;;;18.05;56.01
60319;BME280;46163;52.306;5.634;2023-05-20T07:12:48;102342.72;;;18.08;55.74
60319;BME280;46163;52.306;5.634;2023-05-20T07:15:13;102334.63;;;18.08;55.61
60319;BME280;46163;52.306;5.634;2023-05-20T07:17:39;102332.16;;;18.07;55.75
60319;BME280;46163;52.306;5.634;2023-05-20T07:20:05;102335.25;;;18.11;55.62
60319;BME280;46163;52.306;5.634;2023-05-20T07:22:31;102338.97;;;18.16;55.62
60319;BME280;46163;52.306;5.634;2023-05-20T07:24:56;102340.59;;;18.17;55.22
60319;BME280;46163;52.306;5.634;2023-05-20T07:27:23;102332.75;;;18.16;55.33
60319;BME280;46163;52.306;5.634;2023-05-20T07:29:48;102319.06;;;18.17;55.25
60319;BME280;46163;52.306;5.634;2023-05-20T07:32:14;102308.06;;;18.12;55.24
60319;BME280;46163;52.306;5.634;2023-05-20T07:34:40;102323.97;;;18.27;55.04
60319;BME280;46163;52.306;5.634;2023-05-20T07:37:05;102323.53;;;18.30;54.95
60319;BME280;46163;52.306;5.634;2023-05-20T07:39:30;102316.03;;;18.32;54.95
60319;BME280;46163;52.306;5.634;2023-05-20T07:41:56;102314.41;;;18.31;54.79
60319;BME280;46163;52.306;5.634;2023-05-20T07:44:21;102321.63;;;18.37;54.81
60319;BME280;46163;52.306;5.634;2023-05-20T07:46:47;102316.84;;;18.39;54.89
60319;BME280;46163;52.306;5.634;2023-05-20T07:49:13;102319.31;;;18.41;54.68
60319;BME280;46163;52.306;5.634;2023-05-20T07:51:38;102318.06;;;18.43;54.56
60319;BME280;46163;52.306;5.634;2023-05-20T07:54:04;102308.13;;;18.44;54.42
60319;BME280;46163;52.306;5.634;2023-05-20T07:56:30;102318.22;;;18.48;54.24
60319;BME280;46163;52.306;5.634;2023-05-20T07:58:57;102310.75;;;18.50;53.88
60319;BME280;46163;52.306;5.634;2023-05-20T08:01:26;102313.03;;;18.53;53.76
60319;BME280;46163;52.306;5.634;2023-05-20T08:03:52;102306.38;;;18.56;53.93
60319;BME280;46163;52.306;5.634;2023-05-20T08:06:18;102288.31;;;18.56;53.67
60319;BME280;46163;52.306;5.634;2023-05-20T08:08:45;102297.19;;;18.63;53.86
60319;BME280;46163;52.306;5.634;2023-05-20T08:11:11;102291.38;;;18.67;53.68
60319;BME280;46163;52.306;5.634;2023-05-20T08:13:37;102292.59;;;18.71;53.97
60319;BME280;46163;52.306;5.634;2023-05-20T08:16:02;102297.78;;;18.72;54.00
60319;BME280;46163;52.306;5.634;2023-05-20T08:18:29;102300.03;;;18.75;54.28
60319;BME280;46163;52.306;5.634;2023-05-20T08:20:54;102301.25;;;18.79;54.17
60319;BME280;46163;52.306;5.634;2023-05-20T08:23:20;102293.75;;;18.81;54.48
60319;BME280;46163;52.306;5.634;2023-05-20T08:25:45;102297.88;;;18.84;54.28
60319;BME280;46163;52.306;5.634;2023-05-20T08:28:12;102288.31;;;18.88;54.53
60319;BME280;46163;52.306;5.634;2023-05-20T08:30:37;102291.63;;;18.90;54.37
60319;BME280;46163;52.306;5.634;2023-05-20T08:33:03;102285.78;;;18.93;54.22
60319;BME280;46163;52.306;5.634;2023-05-20T08:35:28;102286.41;;;18.95;54.39
60319;BME280;46163;52.306;5.634;2023-05-20T08:37:54;102281.59;;;18.97;54.34
60319;BME280;46163;52.306;5.634;2023-05-20T08:40:20;102281.16;;;19.00;54.31
60319;BME280;46163;52.306;5.634;2023-05-20T08:42:48;102278.22;;;19.02;54.02
60319;BME280;46163;52.306;5.634;2023-05-20T08:45:16;102270.94;;;19.02;53.98
60319;BME280;46163;52.306;5.634;2023-05-20T08:47:42;102270.06;;;19.08;53.88
60319;BME280;46163;52.306;5.634;2023-05-20T08:50:09;102280.63;;;19.10;54.03
60319;BME280;46163;52.306;5.634;2023-05-20T08:52:37;102274.00;;;19.12;53.81
60319;BME280;46163;52.306;5.634;2023-05-20T08:55:06;102258.00;;;19.11;53.87
60319;BME280;46163;52.306;5.634;2023-05-20T08:57:34;102259.03;;;19.10;54.27
60319;BME280;46163;52.306;5.634;2023-05-20T09:00:01;102259.81;;;19.17;54.26
60319;BME280;46163;52.306;5.634;2023-05-20T09:02:36;102271.59;;;19.23;54.28
60319;BME280;46163;52.306;5.634;2023-05-20T09:05:03;102263.88;;;19.26;54.14
60319;BME280;46163;52.306;5.634;2023-05-20T09:07:29;102270.25;;;19.32;54.36
60319;BME280;46163;52.306;5.634;2023-05-20T09:09:55;102266.50;;;19.33;54.21
60319;BME280;46163;52.306;5.634;2023-05-20T09:12:21;102265.84;;;19.37;54.04
60319;BME280;46163;52.306;5.634;2023-05-20T09:14:46;102267.25;;;19.40;53.96
60319;BME280;46163;52.306;5.634;2023-05-20T09:17:12;102265.16;;;19.42;54.12
60319;BME280;46163;52.306;5.634;2023-05-20T09:19:38;102268.22;;;19.45;53.67
60319;BME280;46163;52.306;5.634;2023-05-20T09:22:03;102257.00;;;19.48;53.73
60319;BME280;46163;52.306;5.634;2023-05-20T09:24:30;102253.00;;;19.51;53.66
60319;BME280;46163;52.306;5.634;2023-05-20T09:26:55;102249.84;;;19.54;53.72
60319;BME280;46163;52.306;5.634;2023-05-20T09:29:23;102247.78;;;19.56;53.86
60319;BME280;46163;52.306;5.634;2023-05-20T09:31:49;102235.31;;;19.55;53.64
60319;BME280;46163;52.306;5.634;2023-05-20T09:34:19;102236.53;;;19.59;53.67
60319;BME280;46163;52.306;5.634;2023-05-20T09:36:48;102247.78;;;19.56;53.98
60319;BME280;46163;52.306;5.634;2023-05-20T09:39:16;102256.25;;;19.60;54.24
60319;BME280;46163;52.306;5.634;2023-05-20T09:42:01;102251.44;;;19.62;54.39
60319;BME280;46163;52.306;5.634;2023-05-20T09:44:30;102238.41;;;19.59;54.32
60319;BME280;46163;52.306;5.634;2023-05-20T09:46:56;102239.00;;;19.61;54.07
60319;BME280;46163;52.306;5.634;2023-05-20T09:49:24;102225.50;;;19.61;53.67
60319;BME280;46163;52.306;5.634;2023-05-20T09:51:51;102217.97;;;19.63;53.74
60319;BME280;46163;52.306;5.634;2023-05-20T09:54:18;102230.13;;;19.72;53.72
60319;BME280;46163;52.306;5.634;2023-05-20T09:56:46;102219.13;;;19.73;53.50
60319;BME280;46163;52.306;5.634;2023-05-20T09:59:14;102230.88;;;19.79;53.53
60319;BME280;46163;52.306;5.634;2023-05-20T10:01:41;102222.53;;;19.81;53.55
60319;BME280;46163;52.306;5.634;2023-05-20T10:04:07;102225.38;;;19.86;53.40
60319;BME280;46163;52.306;5.634;2023-05-20T10:20:30;102213.38;;;20.12;53.30
60319;BME280;46163;52.306;5.634;2023-05-20T10:22:57;102196.91;;;20.13;52.89
60319;BME280;46163;52.306;5.634;2023-05-20T10:25:25;102202.00;;;20.21;52.93
60319;BME280;46163;52.306;5.634;2023-05-20T10:27:51;102206.09;;;20.24;52.89
60319;BME280;46163;52.306;5.634;2023-05-20T10:30:27;102190.84;;;20.29;53.14
60319;BME280;46163;52.306;5.634;2023-05-20T10:33:02;102181.09;;;20.28;53.06
60319;BME280;46163;52.306;5.634;2023-05-20T10:35:29;102192.88;;;20.34;53.11
60319;BME280;46163;52.306;5.634;2023-05-20T10:38:07;102182.97;;;20.40;52.91
60319;BME280;46163;52.306;5.634;2023-05-20T10:40:32;102185.22;;;20.43;52.81
60319;BME280;46163;52.306;5.634;2023-05-20T10:43:08;102175.03;;;20.45;53.07
60319;BME280;46163;52.306;5.634;2023-05-20T10:45:33;102171.28;;;20.46;52.89
60319;BME280;46163;52.306;5.634;2023-05-20T10:48:01;102172.09;;;20.46;52.96
60319;BME280;46163;52.306;5.634;2023-05-20T10:50:32;102167.50;;;20.47;53.16
60319;BME280;46163;52.306;5.634;2023-05-20T10:53:05;102160.78;;;20.49;53.23
60319;BME280;46163;52.306;5.634;2023-05-20T10:55:35;102158.09;;;20.49;52.96
60319;BME280;46163;52.306;5.634;2023-05-20T10:58:05;102153.06;;;20.53;53.04
60319;BME280;46163;52.306;5.634;2023-05-20T11:00:34;102168.22;;;20.54;53.05
60319;BME280;46163;52.306;5.634;2023-05-20T11:03:01;102159.53;;;20.52;53.08
60319;BME280;46163;52.306;5.634;2023-05-20T11:05:27;102165.38;;;20.49;53.20
60319;BME280;46163;52.306;5.634;2023-05-20T11:08:01;102166.56;;;20.53;53.50
60319;BME280;46163;52.306;5.634;2023-05-20T11:10:28;102167.03;;;20.50;53.68
60319;BME280;46163;52.306;5.634;2023-05-20T11:12:55;102162.22;;;20.52;53.82
60319;BME280;46163;52.306;5.634;2023-05-20T11:15:22;102148.22;;;20.55;53.74
60319;BME280;46163;52.306;5.634;2023-05-20T11:17:55;102155.28;;;20.56;53.64
60319;BME280;46163;52.306;5.634;2023-05-20T11:20:23;102147.97;;;20.56;53.62
60319;BME280;46163;52.306;5.634;2023-05-20T11:22:52;102152.56;;;20.56;53.91
60319;BME280;46163;52.306;5.634;2023-05-20T11:25:20;102150.69;;;20.56;53.92
60319;BME280;46163;52.306;5.634;2023-05-20T11:27:49;102153.63;;;20.55;53.83
60319;BME280;46163;52.306;5.634;2023-05-20T11:30:15;102145.28;;;20.56;53.96
60319;BME280;46163;52.306;5.634;2023-05-20T11:33:01;102147.28;;;20.61;53.72
60319;BME280;46163;52.306;5.634;2023-05-20T11:35:29;102128.81;;;20.58;53.79
60319;BME280;46163;52.306;5.634;2023-05-20T11:40:24;102140.22;;;20.72;53.72
60319;BME280;46163;52.306;5.634;2023-05-20T11:42:59;102132.94;;;20.72;54.23
60319;BME280;46163;52.306;5.634;2023-05-20T11:45:25;102125.06;;;20.71;54.25
60319;BME280;46163;52.306;5.634;2023-05-20T11:48:04;102123.28;;;20.76;54.12
60319;BME280;46163;52.306;5.634;2023-05-20T11:50:41;102122.81;;;20.79;54.34
60319;BME280;46163;52.306;5.634;2023-05-20T11:53:10;102122.31;;;20.82;53.96
60319;BME280;46163;52.306;5.634;2023-05-20T11:55:48;102104.81;;;20.85;54.21
60319;BME280;46163;52.306;5.634;2023-05-20T11:58:40;102113.75;;;20.85;54.05
60319;BME280;46163;52.306;5.634;2023-05-20T12:01:07;102095.38;;;20.87;54.13
60319;BME280;46163;52.306;5.634;2023-05-20T12:03:33;102098.09;;;20.87;53.68
60319;BME280;46163;52.306;5.634;2023-05-20T12:06:02;102106.78;;;20.89;53.83
60319;BME280;46163;52.306;5.634;2023-05-20T12:08:28;102094.31;;;20.88;53.43
60319;BME280;46163;52.306;5.634;2023-05-20T12:10:54;102085.50;;;20.81;53.46
60319;BME280;46163;52.306;5.634;2023-05-20T12:13:20;102098.56;;;20.84;53.86
60319;BME280;46163;52.306;5.634;2023-05-20T12:15:47;102090.22;;;20.86;53.56
60319;BME280;46163;52.306;5.634;2023-05-20T12:18:13;102093.50;;;20.88;53.44
60319;BME280;46163;52.306;5.634;2023-05-20T12:20:38;102083.16;;;20.85;53.64
60319;BME280;46163;52.306;5.634;2023-05-20T12:23:04;102080.78;;;20.88;53.58
60319;BME280;46163;52.306;5.634;2023-05-20T12:25:29;102095.97;;;20.89;53.43
60319;BME280;46163;52.306;5.634;2023-05-20T12:27:55;102073.75;;;20.87;53.60
60319;BME280;46163;52.306;5.634;2023-05-20T12:30:23;102087.34;;;20.93;53.36
60319;BME280;46163;52.306;5.634;2023-05-20T12:32:50;102081.94;;;20.93;53.42
60319;BME280;46163;52.306;5.634;2023-05-20T12:35:18;102084.19;;;20.96;53.29
60319;BME280;46163;52.306;5.634;2023-05-20T12:37:44;102088.78;;;20.95;53.85
60319;BME280;46163;52.306;5.634;2023-05-20T12:40:11;102088.41;;;20.92;53.22
60319;BME280;46163;52.306;5.634;2023-05-20T12:42:44;102079.03;;;20.94;53.24
60319;BME280;46163;52.306;5.634;2023-05-20T12:45:10;102097.13;;;20.94;53.42
60319;BME280;46163;52.306;5.634;2023-05-20T12:47:36;102079.25;;;20.93;53.50
60319;BME280;46163;52.306;5.634;2023-05-20T12:50:02;102083.84;;;20.92;53.32
60319;BME280;46163;52.306;5.634;2023-05-20T12:52:28;102079.25;;;20.93;53.41
60319;BME280;46163;52.306;5.634;2023-05-20T12:54:55;102073.81;;;20.93;53.55
60319;BME280;46163;52.306;5.634;2023-05-20T12:57:21;102088.19;;;20.93;53.35
60319;BME280;46163;52.306;5.634;2023-05-20T12:59:47;102071.72;;;20.95;53.43
60319;BME280;46163;52.306;5.634;2023-05-20T13:02:12;102077.59;;;20.92;53.33
60319;BME280;46163;52.306;5.634;2023-05-20T13:04:38;102074.91;;;20.92;53.41